sensor_id;sensor_type;location;lat;lon;timestamp;temperature;humidity
51825;DHT22;37879;52.986;6.282;2022-12-07T00:00:03;2.90;99.90
51825;DHT22;37879;52.986;6.282;2022-12-07T00:02:30;2.90;99.90
51825;DHT22;37879;52.986;6.282;2022-12-07T00:04:56;2.90;99.90
51825;DHT22;37879;52.986;6.282;2022-12-07T00:07:22;2.90;99.90
51825;DHT22;37879;52.986;6.282;2022-12-07T00:09:47;3.50;99.90
51825;DHT22;37879;52.986;6.282;2022-12-07T00:12:13;3.40;99.90
51825;DHT22;37879;52.986;6.282;2022-12-07T00:14:39;2.80;99.90
51825;DHT22;37879;52.986;6.282;2022-12-07T00:17:04;2.90;99.90
51825;DHT22;37879;52.986;6.282;2022-12-07T00:19:30;2.90;99.90
51825;DHT22;37879;52.986;6.282;2022-12-07T00:21:56;2.80;99.90
51825;DHT22;37879;52.986;6.282;2022-12-07T00:24:21;2.90;99.90
51825;DHT22;37879;52.986;6.282;2022-12-07T00:26:47;2.90;99.90
51825;DHT22;37879;52.986;6.282;2022-12-07T00:29:18;3.70;99.90
51825;DHT22;37879;52.986;6.282;2022-12-07T00:31:45;3.00;99.90
51825;DHT22;37879;52.986;6.282;2022-12-07T00:34:17;3.50;99.90
51825;DHT22;37879;52.986;6.282;2022-12-07T00:36:43;3.70;99.90
51825;DHT22;37879;52.986;6.282;2022-12-07T00:39:09;4.30;99.90
51825;DHT22;37879;52.986;6.282;2022-12-07T00:41:34;3.30;99.90
51825;DHT22;37879;52.986;6.282;2022-12-07T00:44:00;3.80;99.90
51825;DHT22;37879;52.986;6.282;2022-12-07T00:46:26;3.70;99.90
51825;DHT22;37879;52.986;6.282;2022-12-07T00:48:53;3.30;99.90
51825;DHT22;37879;52.986;6.282;2022-12-07T00:51:21;3.30;99.90
51825;DHT22;37879;52.986;6.282;2022-12-07T00:53:47;3.40;99.90
51825;DHT22;37879;52.986;6.282;2022-12-07T00:56:18;4.20;99.90
51825;DHT22;37879;52.986;6.282;2022-12-07T00:58:49;3.80;99.90
51825;DHT22;37879;52.986;6.282;2022-12-07T01:01:14;3.40;99.90
51825;DHT22;37879;52.986;6.282;2022-12-07T01:03:40;3.60;99.90
51825;DHT22;37879;52.986;6.282;2022-12-07T01:06:06;3.50;99.90
51825;DHT22;37879;52.986;6.282;2022-12-07T01:08:32;3.60;99.90
51825;DHT22;37879;52.986;6.282;2022-12-07T01:11:03;3.50;99.90
51825;DHT22;37879;52.986;6.282;2022-12-07T01:13:29;3.60;99.90
51825;DHT22;37879;52.986;6.282;2022-12-07T01:16:00;4.30;99.90
51825;DHT22;37879;52.986;6.282;2022-12-07T01:18:27;3.60;99.90
51825;DHT22;37879;52.986;6.282;2022-12-07T01:21:05;3.60;99.90
51825;DHT22;37879;52.986;6.282;2022-12-07T01:23:32;3.50;99.90
51825;DHT22;37879;52.986;6.282;2022-12-07T01:26:00;3.70;99.90
51825;DHT22;37879;52.986;6.282;2022-12-07T01:28:26;3.40;99.90
51825;DHT22;37879;52.986;6.282;2022-12-07T01:31:06;4.00;99.90
51825;DHT22;37879;52.986;6.282;2022-12-07T01:33:35;3.20;99.90
51825;DHT22;37879;52.986;6.282;2022-12-07T01:36:07;3.90;99.90
51825;DHT22;37879;52.986;6.282;2022-12-07T01:38:33;3.10;99.90
51825;DHT22;37879;52.986;6.282;2022-12-07T01:41:00;3.00;99.90
51825;DHT22;37879;52.986;6.282;2022-12-07T01:43:28;3.60;99.90
51825;DHT22;37879;52.986;6.282;2022-12-07T01:45:55;3.50;99.90
51825;DHT22;37879;52.986;6.282;2022-12-07T01:48:29;2.90;99.90
51825;DHT22;37879;52.986;6.282;2022-12-07T01:51:01;2.90;99.90
51825;DHT22;37879;52.986;6.282;2022-12-07T01:53:29;3.60;99.90
51825;DHT22;37879;52.986;6.282;2022-12-07T01:55:56;4.00;99.90
51825;DHT22;37879;52.986;6.282;2022-12-07T01:58:24;2.80;99.90
51825;DHT22;37879;52.986;6.282;2022-12-07T02:00:50;2.80;99.90
51825;DHT22;37879;52.986;6.282;2022-12-07T02:03:34;3.20;99.90
51825;DHT22;37879;52.986;6.282;2022-12-07T02:06:02;2.80;99.90
51825;DHT22;37879;52.986;6.282;2022-12-07T02:08:29;2.80;99.90
51825;DHT22;37879;52.986;6.282;2022-12-07T02:10:54;2.90;99.90
51825;DHT22;37879;52.986;6.282;2022-12-07T02:13:26;2.80;99.90
51825;DHT22;37879;52.986;6.282;2022-12-07T02:19:20;2.90;99.90
51825;DHT22;37879;52.986;6.282;2022-12-07T02:24:54;2.90;99.90
51825;DHT22;37879;52.986;6.282;2022-12-07T02:30:12;3.00;99.90
51825;DHT22;37879;52.986;6.282;2022-12-07T02:35:24;3.10;99.90
51825;DHT22;37879;52.986;6.282;2022-12-07T02:38:14;3.70;99.90
51825;DHT22;37879;52.986;6.282;2022-12-07T02:40:54;3.10;99.90
51825;DHT22;37879;52.986;6.282;2022-12-07T02:43:33;3.30;99.90
51825;DHT22;37879;52.986;6.282;2022-12-07T02:46:04;3.30;99.90
51825;DHT22;37879;52.986;6.282;2022-12-07T02:48:33;3.30;99.90
51825;DHT22;37879;52.986;6.282;2022-12-07T02:51:00;3.40;99.90
51825;DHT22;37879;52.986;6.282;2022-12-07T02:53:36;3.60;99.90
51825;DHT22;37879;52.986;6.282;2022-12-07T02:56:24;3.40;99.90
51825;DHT22;37879;52.986;6.282;2022-12-07T03:10:01;4.00;99.90
51825;DHT22;37879;52.986;6.282;2022-12-07T03:12:32;3.40;99.90
51825;DHT22;37879;52.986;6.282;2022-12-07T03:15:08;3.30;99.90
51825;DHT22;37879;52.986;6.282;2022-12-07T03:17:37;3.10;99.90
51825;DHT22;37879;52.986;6.282;2022-12-07T03:20:07;3.10;99.90
51825;DHT22;37879;52.986;6.282;2022-12-07T03:22:35;3.20;99.90
51825;DHT22;37879;52.986;6.282;2022-12-07T03:25:07;3.80;99.90
51825;DHT22;37879;52.986;6.282;2022-12-07T03:27:46;3.20;99.90
51825;DHT22;37879;52.986;6.282;2022-12-07T03:30:31;3.10;99.90
51825;DHT22;37879;52.986;6.282;2022-12-07T03:33:09;3.10;99.90
51825;DHT22;37879;52.986;6.282;2022-12-07T03:36:10;3.00;99.90
51825;DHT22;37879;52.986;6.282;2022-12-07T03:38:42;3.00;99.90
51825;DHT22;37879;52.986;6.282;2022-12-07T03:41:23;2.90;99.90
51825;DHT22;37879;52.986;6.282;2022-12-07T03:43:50;2.90;99.90
51825;DHT22;37879;52.986;6.282;2022-12-07T03:46:34;3.10;99.90
51825;DHT22;37879;52.986;6.282;2022-12-07T03:49:11;2.90;99.90
51825;DHT22;37879;52.986;6.282;2022-12-07T03:54:23;2.60;99.90
51825;DHT22;37879;52.986;6.282;2022-12-07T03:56:50;2.60;99.90
51825;DHT22;37879;52.986;6.282;2022-12-07T03:59:17;2.50;99.90
51825;DHT22;37879;52.986;6.282;2022-12-07T04:01:44;2.70;99.90
51825;DHT22;37879;52.986;6.282;2022-12-07T04:04:11;3.10;99.90
51825;DHT22;37879;52.986;6.282;2022-12-07T04:06:37;4.20;99.90
51825;DHT22;37879;52.986;6.282;2022-12-07T04:09:03;2.30;99.90
51825;DHT22;37879;52.986;6.282;2022-12-07T04:11:28;2.20;99.90
51825;DHT22;37879;52.986;6.282;2022-12-07T04:13:54;2.20;99.90
51825;DHT22;37879;52.986;6.282;2022-12-07T04:16:38;2.80;99.90
51825;DHT22;37879;52.986;6.282;2022-12-07T04:19:03;2.20;99.90
51825;DHT22;37879;52.986;6.282;2022-12-07T04:21:29;2.20;99.90
51825;DHT22;37879;52.986;6.282;2022-12-07T04:23:55;2.10;99.90
51825;DHT22;37879;52.986;6.282;2022-12-07T04:26:20;2.70;99.90
51825;DHT22;37879;52.986;6.282;2022-12-07T04:28:46;3.80;99.90
51825;DHT22;37879;52.986;6.282;2022-12-07T04:31:12;2.50;99.90
51825;DHT22;37879;52.986;6.282;2022-12-07T04:33:37;2.40;99.90
51825;DHT22;37879;52.986;6.282;2022-12-07T04:36:03;2.80;99.90
51825;DHT22;37879;52.986;6.282;2022-12-07T04:38:29;2.50;99.90
51825;DHT22;37879;52.986;6.282;2022-12-07T04:40:55;2.50;99.90
51825;DHT22;37879;52.986;6.282;2022-12-07T04:43:20;2.50;99.90
51825;DHT22;37879;52.986;6.282;2022-12-07T04:45:47;2.50;99.90
51825;DHT22;37879;52.986;6.282;2022-12-07T04:48:14;2.40;99.90
51825;DHT22;37879;52.986;6.282;2022-12-07T04:50:40;2.50;99.90
51825;DHT22;37879;52.986;6.282;2022-12-07T04:53:05;3.30;99.90
51825;DHT22;37879;52.986;6.282;2022-12-07T04:55:31;2.30;99.90
51825;DHT22;37879;52.986;6.282;2022-12-07T04:57:57;2.50;99.90
51825;DHT22;37879;52.986;6.282;2022-12-07T05:00:22;2.20;99.90
51825;DHT22;37879;52.986;6.282;2022-12-07T05:02:48;3.30;99.90
51825;DHT22;37879;52.986;6.282;2022-12-07T05:05:14;2.00;99.90
51825;DHT22;37879;52.986;6.282;2022-12-07T05:07:39;1.90;99.90
51825;DHT22;37879;52.986;6.282;2022-12-07T05:10:06;2.50;99.90
51825;DHT22;37879;52.986;6.282;2022-12-07T05:12:31;1.80;99.90
51825;DHT22;37879;52.986;6.282;2022-12-07T05:14:57;3.20;99.90
51825;DHT22;37879;52.986;6.282;2022-12-07T05:17:23;1.60;99.90
51825;DHT22;37879;52.986;6.282;2022-12-07T05:19:48;1.60;99.90
51825;DHT22;37879;52.986;6.282;2022-12-07T05:22:14;3.30;99.90
51825;DHT22;37879;52.986;6.282;2022-12-07T05:24:40;1.50;99.90
51825;DHT22;37879;52.986;6.282;2022-12-07T05:27:06;1.50;99.90
51825;DHT22;37879;52.986;6.282;2022-12-07T05:29:32;1.60;99.90
51825;DHT22;37879;52.986;6.282;2022-12-07T05:31:57;1.70;99.90
51825;DHT22;37879;52.986;6.282;2022-12-07T05:34:23;1.90;99.90
51825;DHT22;37879;52.986;6.282;2022-12-07T05:36:49;1.50;99.90
51825;DHT22;37879;52.986;6.282;2022-12-07T05:39:15;2.40;99.90
51825;DHT22;37879;52.986;6.282;2022-12-07T05:41:41;1.50;99.90
51825;DHT22;37879;52.986;6.282;2022-12-07T05:44:26;1.50;99.90
51825;DHT22;37879;52.986;6.282;2022-12-07T05:46:51;1.90;99.90
51825;DHT22;37879;52.986;6.282;2022-12-07T05:49:17;1.50;99.90
51825;DHT22;37879;52.986;6.282;2022-12-07T05:51:43;1.50;99.90
51825;DHT22;37879;52.986;6.282;2022-12-07T05:54:08;1.60;99.90
51825;DHT22;37879;52.986;6.282;2022-12-07T05:56:34;1.60;99.90
51825;DHT22;37879;52.986;6.282;2022-12-07T05:59:00;2.00;99.90
51825;DHT22;37879;52.986;6.282;2022-12-07T06:01:44;1.70;99.90
51825;DHT22;37879;52.986;6.282;2022-12-07T06:04:10;1.80;99.90
51825;DHT22;37879;52.986;6.282;2022-12-07T06:06:36;2.40;99.90
51825;DHT22;37879;52.986;6.282;2022-12-07T06:09:02;2.60;99.90
51825;DHT22;37879;52.986;6.282;2022-12-07T06:11:28;2.00;99.90
51825;DHT22;37879;52.986;6.282;2022-12-07T06:14:12;2.10;99.90
51825;DHT22;37879;52.986;6.282;2022-12-07T06:16:38;2.10;99.90
51825;DHT22;37879;52.986;6.282;2022-12-07T06:19:04;2.80;99.90
51825;DHT22;37879;52.986;6.282;2022-12-07T06:21:30;2.70;99.90
51825;DHT22;37879;52.986;6.282;2022-12-07T06:23:55;2.20;99.90
51825;DHT22;37879;52.986;6.282;2022-12-07T06:26:21;2.80;99.90
51825;DHT22;37879;52.986;6.282;2022-12-07T06:28:47;2.00;99.90
51825;DHT22;37879;52.986;6.282;2022-12-07T06:31:12;1.90;99.90
51825;DHT22;37879;52.986;6.282;2022-12-07T06:33:38;2.30;99.90
51825;DHT22;37879;52.986;6.282;2022-12-07T06:36:04;1.80;99.90
51825;DHT22;37879;52.986;6.282;2022-12-07T06:38:30;1.70;99.90
51825;DHT22;37879;52.986;6.282;2022-12-07T06:40:55;1.90;99.90
51825;DHT22;37879;52.986;6.282;2022-12-07T06:43:21;3.40;99.90
51825;DHT22;37879;52.986;6.282;2022-12-07T06:45:47;1.90;99.90
51825;DHT22;37879;52.986;6.282;2022-12-07T06:48:12;3.30;99.90
51825;DHT22;37879;52.986;6.282;2022-12-07T06:50:38;3.30;99.90
51825;DHT22;37879;52.986;6.282;2022-12-07T06:53:04;4.20;99.90
51825;DHT22;37879;52.986;6.282;2022-12-07T06:55:29;2.20;99.90
51825;DHT22;37879;52.986;6.282;2022-12-07T06:57:55;2.20;99.90
51825;DHT22;37879;52.986;6.282;2022-12-07T07:00:21;2.10;99.90
51825;DHT22;37879;52.986;6.282;2022-12-07T07:02:46;2.00;99.90
51825;DHT22;37879;52.986;6.282;2022-12-07T07:05:12;2.60;99.90
51825;DHT22;37879;52.986;6.282;2022-12-07T07:07:38;1.90;99.90
51825;DHT22;37879;52.986;6.282;2022-12-07T07:10:04;1.80;99.90
51825;DHT22;37879;52.986;6.282;2022-12-07T07:12:30;1.70;99.90
51825;DHT22;37879;52.986;6.282;2022-12-07T07:14:56;1.80;99.90
51825;DHT22;37879;52.986;6.282;2022-12-07T07:17:22;1.80;99.90
51825;DHT22;37879;52.986;6.282;2022-12-07T07:19:47;1.70;99.90
51825;DHT22;37879;52.986;6.282;2022-12-07T07:22:13;1.80;99.90
51825;DHT22;37879;52.986;6.282;2022-12-07T07:24:39;1.80;99.90
51825;DHT22;37879;52.986;6.282;2022-12-07T07:27:04;1.80;99.90
51825;DHT22;37879;52.986;6.282;2022-12-07T07:29:30;2.70;99.90
51825;DHT22;37879;52.986;6.282;2022-12-07T07:31:55;2.20;99.90
51825;DHT22;37879;52.986;6.282;2022-12-07T07:34:21;2.70;99.90
51825;DHT22;37879;52.986;6.282;2022-12-07T07:36:47;1.90;99.90
51825;DHT22;37879;52.986;6.282;2022-12-07T07:39:12;3.20;99.90
51825;DHT22;37879;52.986;6.282;2022-12-07T07:41:38;2.10;99.90
51825;DHT22;37879;52.986;6.282;2022-12-07T07:44:04;2.90;99.90
51825;DHT22;37879;52.986;6.282;2022-12-07T07:46:30;3.10;99.90
51825;DHT22;37879;52.986;6.282;2022-12-07T07:48:56;2.10;99.90
51825;DHT22;37879;52.986;6.282;2022-12-07T07:51:22;2.90;99.90
51825;DHT22;37879;52.986;6.282;2022-12-07T07:53:47;2.10;99.90
51825;DHT22;37879;52.986;6.282;2022-12-07T07:56:13;2.10;99.90
51825;DHT22;37879;52.986;6.282;2022-12-07T07:58:39;4.10;99.90
51825;DHT22;37879;52.986;6.282;2022-12-07T08:01:06;3.50;99.90
51825;DHT22;37879;52.986;6.282;2022-12-07T08:03:32;3.30;99.90
51825;DHT22;37879;52.986;6.282;2022-12-07T08:05:58;3.30;99.90
51825;DHT22;37879;52.986;6.282;2022-12-07T08:08:24;2.00;99.90
51825;DHT22;37879;52.986;6.282;2022-12-07T08:10:49;2.90;99.90
51825;DHT22;37879;52.986;6.282;2022-12-07T08:13:16;3.70;99.90
51825;DHT22;37879;52.986;6.282;2022-12-07T08:15:47;1.90;99.90
51825;DHT22;37879;52.986;6.282;2022-12-07T08:18:14;3.10;99.90
51825;DHT22;37879;52.986;6.282;2022-12-07T08:20:40;3.20;99.90
51825;DHT22;37879;52.986;6.282;2022-12-07T08:23:07;3.10;99.90
51825;DHT22;37879;52.986;6.282;2022-12-07T08:25:34;2.00;99.90
51825;DHT22;37879;52.986;6.282;2022-12-07T08:28:00;2.00;99.90
51825;DHT22;37879;52.986;6.282;2022-12-07T08:30:26;2.90;99.90
51825;DHT22;37879;52.986;6.282;2022-12-07T08:32:52;2.20;99.90
51825;DHT22;37879;52.986;6.282;2022-12-07T08:35:18;3.70;99.90
51825;DHT22;37879;52.986;6.282;2022-12-07T08:37:43;2.10;99.90
51825;DHT22;37879;52.986;6.282;2022-12-07T08:40:11;2.10;99.90
51825;DHT22;37879;52.986;6.282;2022-12-07T08:42:41;2.10;99.90
51825;DHT22;37879;52.986;6.282;2022-12-07T08:45:09;3.50;99.90
51825;DHT22;37879;52.986;6.282;2022-12-07T08:47:38;2.10;99.90
51825;DHT22;37879;52.986;6.282;2022-12-07T08:50:07;2.30;99.90
51825;DHT22;37879;52.986;6.282;2022-12-07T08:52:35;2.10;99.90
51825;DHT22;37879;52.986;6.282;2022-12-07T08:55:01;3.90;99.90
51825;DHT22;37879;52.986;6.282;2022-12-07T08:57:29;2.10;99.90
51825;DHT22;37879;52.986;6.282;2022-12-07T08:59:55;2.10;99.90
51825;DHT22;37879;52.986;6.282;2022-12-07T09:02:21;2.10;99.90
51825;DHT22;37879;52.986;6.282;2022-12-07T09:04:47;2.10;99.90
51825;DHT22;37879;52.986;6.282;2022-12-07T09:07:12;3.70;99.90
51825;DHT22;37879;52.986;6.282;2022-12-07T09:09:38;2.90;99.90
51825;DHT22;37879;52.986;6.282;2022-12-07T09:12:04;3.20;99.90
51825;DHT22;37879;52.986;6.282;2022-12-07T09:14:30;2.50;99.90
51825;DHT22;37879;52.986;6.282;2022-12-07T09:17:05;2.50;99.90
51825;DHT22;37879;52.986;6.282;2022-12-07T09:19:31;3.60;99.90
51825;DHT22;37879;52.986;6.282;2022-12-07T09:21:57;2.70;99.90
51825;DHT22;37879;52.986;6.282;2022-12-07T09:24:22;4.90;99.90
51825;DHT22;37879;52.986;6.282;2022-12-07T09:26:48;4.60;99.90
51825;DHT22;37879;52.986;6.282;2022-12-07T09:29:14;3.60;99.90
51825;DHT22;37879;52.986;6.282;2022-12-07T09:31:40;3.00;99.90
51825;DHT22;37879;52.986;6.282;2022-12-07T09:34:05;3.10;99.90
51825;DHT22;37879;52.986;6.282;2022-12-07T09:36:32;3.20;99.90
51825;DHT22;37879;52.986;6.282;2022-12-07T09:38:58;3.40;99.90
51825;DHT22;37879;52.986;6.282;2022-12-07T09:41:25;5.30;99.90
51825;DHT22;37879;52.986;6.282;2022-12-07T09:43:53;4.60;99.90
51825;DHT22;37879;52.986;6.282;2022-12-07T09:46:22;2.00;99.90
51825;DHT22;37879;52.986;6.282;2022-12-07T09:48:48;4.50;99.90
51825;DHT22;37879;52.986;6.282;2022-12-07T09:53:43;3.90;99.90
51825;DHT22;37879;52.986;6.282;2022-12-07T09:56:16;4.50;99.90
51825;DHT22;37879;52.986;6.282;2022-12-07T09:58:43;3.30;99.90
51825;DHT22;37879;52.986;6.282;2022-12-07T10:01:11;3.90;99.90
51825;DHT22;37879;52.986;6.282;2022-12-07T10:03:39;4.70;99.90
51825;DHT22;37879;52.986;6.282;2022-12-07T10:06:07;3.90;99.90
51825;DHT22;37879;52.986;6.282;2022-12-07T10:08:33;3.20;99.90
51825;DHT22;37879;52.986;6.282;2022-12-07T10:11:01;3.50;99.90
51825;DHT22;37879;52.986;6.282;2022-12-07T10:13:40;3.60;99.90
51825;DHT22;37879;52.986;6.282;2022-12-07T10:16:31;4.10;99.90
51825;DHT22;37879;52.986;6.282;2022-12-07T10:19:18;4.90;99.90
51825;DHT22;37879;52.986;6.282;2022-12-07T10:22:03;4.00;99.90
51825;DHT22;37879;52.986;6.282;2022-12-07T10:24:29;4.10;99.90
51825;DHT22;37879;52.986;6.282;2022-12-07T10:26:55;4.30;99.90
51825;DHT22;37879;52.986;6.282;2022-12-07T10:29:32;4.10;99.90
51825;DHT22;37879;52.986;6.282;2022-12-07T10:31:59;4.00;99.90
51825;DHT22;37879;52.986;6.282;2022-12-07T10:34:36;4.60;99.90
51825;DHT22;37879;52.986;6.282;2022-12-07T10:39:53;3.90;99.90
51825;DHT22;37879;52.986;6.282;2022-12-07T10:42:30;3.90;99.90
51825;DHT22;37879;52.986;6.282;2022-12-07T10:45:18;3.90;99.90
51825;DHT22;37879;52.986;6.282;2022-12-07T10:47:51;3.50;99.90
51825;DHT22;37879;52.986;6.282;2022-12-07T10:58:42;4.20;99.90
51825;DHT22;37879;52.986;6.282;2022-12-07T11:01:32;4.30;99.90
51825;DHT22;37879;52.986;6.282;2022-12-07T11:04:20;4.30;99.90
51825;DHT22;37879;52.986;6.282;2022-12-07T11:07:14;4.90;99.90
51825;DHT22;37879;52.986;6.282;2022-12-07T11:10:05;4.40;99.90
51825;DHT22;37879;52.986;6.282;2022-12-07T11:15:23;5.80;99.90
51825;DHT22;37879;52.986;6.282;2022-12-07T11:21:37;4.60;99.90
51825;DHT22;37879;52.986;6.282;2022-12-07T11:24:24;5.10;99.90
51825;DHT22;37879;52.986;6.282;2022-12-07T11:27:09;4.60;99.90
51825;DHT22;37879;52.986;6.282;2022-12-07T11:35:05;4.40;99.90
51825;DHT22;37879;52.986;6.282;2022-12-07T11:37:34;4.40;99.90
51825;DHT22;37879;52.986;6.282;2022-12-07T11:42:41;4.30;99.90
51825;DHT22;37879;52.986;6.282;2022-12-07T11:45:19;4.30;99.90
51825;DHT22;37879;52.986;6.282;2022-12-07T11:47:56;4.40;99.90
51825;DHT22;37879;52.986;6.282;2022-12-07T11:50:54;4.40;99.90
51825;DHT22;37879;52.986;6.282;2022-12-07T11:53:20;4.50;99.90
51825;DHT22;37879;52.986;6.282;2022-12-07T11:55:52;5.80;99.90
51825;DHT22;37879;52.986;6.282;2022-12-07T11:58:40;4.70;99.90
51825;DHT22;37879;52.986;6.282;2022-12-07T12:06:39;5.40;99.90
51825;DHT22;37879;52.986;6.282;2022-12-07T12:17:31;4.90;99.90
51825;DHT22;37879;52.986;6.282;2022-12-07T12:22:43;5.10;99.90
51825;DHT22;37879;52.986;6.282;2022-12-07T12:25:25;5.40;99.90
51825;DHT22;37879;52.986;6.282;2022-12-07T12:27:55;5.20;99.90
51825;DHT22;37879;52.986;6.282;2022-12-07T12:32:51;5.20;99.90
51825;DHT22;37879;52.986;6.282;2022-12-07T12:38:26;5.60;99.90
51825;DHT22;37879;52.986;6.282;2022-12-07T12:40:53;4.60;99.90
51825;DHT22;37879;52.986;6.282;2022-12-07T12:43:42;4.40;99.90
51825;DHT22;37879;52.986;6.282;2022-12-07T12:54:32;4.00;99.90
51825;DHT22;37879;52.986;6.282;2022-12-07T12:57:19;4.00;99.90
51825;DHT22;37879;52.986;6.282;2022-12-07T13:20:54;3.90;99.90
51825;DHT22;37879;52.986;6.282;2022-12-07T13:28:42;4.00;99.90
51825;DHT22;37879;52.986;6.282;2022-12-07T13:33:54;4.00;99.90
51825;DHT22;37879;52.986;6.282;2022-12-07T13:36:26;4.10;99.90
51825;DHT22;37879;52.986;6.282;2022-12-07T13:38:58;4.10;99.90
51825;DHT22;37879;52.986;6.282;2022-12-07T13:41:28;4.10;99.90
51825;DHT22;37879;52.986;6.282;2022-12-07T13:46:43;4.40;99.90
51825;DHT22;37879;52.986;6.282;2022-12-07T13:49:24;4.00;99.90
51825;DHT22;37879;52.986;6.282;2022-12-07T13:51:52;5.20;99.90
51825;DHT22;37879;52.986;6.282;2022-12-07T13:54:18;4.00;99.90
51825;DHT22;37879;52.986;6.282;2022-12-07T13:56:48;4.60;99.90
51825;DHT22;37879;52.986;6.282;2022-12-07T13:59:24;4.00;99.90
51825;DHT22;37879;52.986;6.282;2022-12-07T14:01:51;2.30;99.90
51825;DHT22;37879;52.986;6.282;2022-12-07T14:06:59;4.00;99.90
51825;DHT22;37879;52.986;6.282;2022-12-07T14:09:27;4.00;99.90
51825;DHT22;37879;52.986;6.282;2022-12-07T14:11:55;3.40;99.90
51825;DHT22;37879;52.986;6.282;2022-12-07T14:14:29;4.50;99.90
51825;DHT22;37879;52.986;6.282;2022-12-07T14:17:08;4.50;99.90
51825;DHT22;37879;52.986;6.282;2022-12-07T14:19:49;3.90;99.90
51825;DHT22;37879;52.986;6.282;2022-12-07T14:27:49;3.80;99.90
51825;DHT22;37879;52.986;6.282;2022-12-07T14:30:16;3.80;99.90
51825;DHT22;37879;52.986;6.282;2022-12-07T14:32:43;3.70;99.90
51825;DHT22;37879;52.986;6.282;2022-12-07T14:35:15;5.30;99.90
51825;DHT22;37879;52.986;6.282;2022-12-07T14:37:43;4.60;99.90
51825;DHT22;37879;52.986;6.282;2022-12-07T14:40:17;4.20;99.90
51825;DHT22;37879;52.986;6.282;2022-12-07T14:42:44;3.70;99.90
51825;DHT22;37879;52.986;6.282;2022-12-07T14:45:15;3.70;99.90
51825;DHT22;37879;52.986;6.282;2022-12-07T14:47:43;4.30;99.90
51825;DHT22;37879;52.986;6.282;2022-12-07T14:50:12;3.70;99.90
51825;DHT22;37879;52.986;6.282;2022-12-07T14:52:38;3.70;99.90
51825;DHT22;37879;52.986;6.282;2022-12-07T14:55:05;3.70;99.90
51825;DHT22;37879;52.986;6.282;2022-12-07T14:57:30;3.60;99.90
51825;DHT22;37879;52.986;6.282;2022-12-07T14:59:56;3.70;99.90
51825;DHT22;37879;52.986;6.282;2022-12-07T15:02:22;3.70;99.90
51825;DHT22;37879;52.986;6.282;2022-12-07T15:04:48;4.00;99.90
51825;DHT22;37879;52.986;6.282;2022-12-07T15:07:19;4.70;99.90
51825;DHT22;37879;52.986;6.282;2022-12-07T15:09:45;5.60;99.90
51825;DHT22;37879;52.986;6.282;2022-12-07T15:12:11;3.70;99.90
51825;DHT22;37879;52.986;6.282;2022-12-07T15:14:37;5.70;99.90
51825;DHT22;37879;52.986;6.282;2022-12-07T15:17:03;3.70;99.90
51825;DHT22;37879;52.986;6.282;2022-12-07T15:19:28;3.70;99.90
51825;DHT22;37879;52.986;6.282;2022-12-07T15:21:54;3.60;99.90
51825;DHT22;37879;52.986;6.282;2022-12-07T15:24:20;3.60;99.90
51825;DHT22;37879;52.986;6.282;2022-12-07T15:26:47;4.90;99.90
51825;DHT22;37879;52.986;6.282;2022-12-07T15:29:13;4.50;99.90
51825;DHT22;37879;52.986;6.282;2022-12-07T15:31:40;3.50;99.90
51825;DHT22;37879;52.986;6.282;2022-12-07T15:34:06;4.10;99.90
51825;DHT22;37879;52.986;6.282;2022-12-07T15:36:33;3.50;99.90
51825;DHT22;37879;52.986;6.282;2022-12-07T15:38:59;3.50;99.90
51825;DHT22;37879;52.986;6.282;2022-12-07T15:41:26;3.50;99.90
51825;DHT22;37879;52.986;6.282;2022-12-07T15:43:52;3.50;99.90
51825;DHT22;37879;52.986;6.282;2022-12-07T15:46:39;3.50;99.90
51825;DHT22;37879;52.986;6.282;2022-12-07T15:49:19;3.90;99.90
51825;DHT22;37879;52.986;6.282;2022-12-07T15:51:46;3.50;99.90
51825;DHT22;37879;52.986;6.282;2022-12-07T15:54:16;3.40;99.90
51825;DHT22;37879;52.986;6.282;2022-12-07T15:56:43;3.30;99.90
51825;DHT22;37879;52.986;6.282;2022-12-07T15:59:08;3.90;99.90
51825;DHT22;37879;52.986;6.282;2022-12-07T16:01:34;3.30;99.90
51825;DHT22;37879;52.986;6.282;2022-12-07T16:04:00;3.30;99.90
51825;DHT22;37879;52.986;6.282;2022-12-07T16:06:26;3.30;99.90
51825;DHT22;37879;52.986;6.282;2022-12-07T16:08:52;3.70;99.90
51825;DHT22;37879;52.986;6.282;2022-12-07T16:11:18;3.20;99.90
51825;DHT22;37879;52.986;6.282;2022-12-07T16:13:43;3.20;99.90
51825;DHT22;37879;52.986;6.282;2022-12-07T16:16:14;3.20;99.90
51825;DHT22;37879;52.986;6.282;2022-12-07T16:18:42;3.20;99.90
51825;DHT22;37879;52.986;6.282;2022-12-07T16:21:08;3.10;99.90
51825;DHT22;37879;52.986;6.282;2022-12-07T16:23:34;3.10;99.90
51825;DHT22;37879;52.986;6.282;2022-12-07T16:26:04;3.10;99.90
51825;DHT22;37879;52.986;6.282;2022-12-07T16:28:30;3.10;99.90
51825;DHT22;37879;52.986;6.282;2022-12-07T16:31:11;3.10;99.90
51825;DHT22;37879;52.986;6.282;2022-12-07T16:33:38;3.10;99.90
51825;DHT22;37879;52.986;6.282;2022-12-07T16:36:06;3.00;99.90
51825;DHT22;37879;52.986;6.282;2022-12-07T16:38:32;3.00;99.90
51825;DHT22;37879;52.986;6.282;2022-12-07T16:40:58;4.40;99.90
51825;DHT22;37879;52.986;6.282;2022-12-07T16:43:24;4.60;99.90
51825;DHT22;37879;52.986;6.282;2022-12-07T16:45:50;3.00;99.90
51825;DHT22;37879;52.986;6.282;2022-12-07T16:48:16;3.00;99.90
51825;DHT22;37879;52.986;6.282;2022-12-07T16:50:42;3.00;99.90
51825;DHT22;37879;52.986;6.282;2022-12-07T16:53:09;2.90;99.90
51825;DHT22;37879;52.986;6.282;2022-12-07T16:55:43;2.90;99.90
51825;DHT22;37879;52.986;6.282;2022-12-07T16:58:10;2.90;99.90
51825;DHT22;37879;52.986;6.282;2022-12-07T17:00:37;2.90;99.90
51825;DHT22;37879;52.986;6.282;2022-12-07T17:03:03;4.30;99.90
51825;DHT22;37879;52.986;6.282;2022-12-07T17:05:29;2.80;99.90
51825;DHT22;37879;52.986;6.282;2022-12-07T17:07:56;2.90;99.90
51825;DHT22;37879;52.986;6.282;2022-12-07T17:10:23;2.90;99.90
51825;DHT22;37879;52.986;6.282;2022-12-07T17:12:49;2.80;99.90
51825;DHT22;37879;52.986;6.282;2022-12-07T17:15:16;3.20;99.90
51825;DHT22;37879;52.986;6.282;2022-12-07T17:17:45;2.80;99.90
51825;DHT22;37879;52.986;6.282;2022-12-07T17:20:12;2.80;99.90
51825;DHT22;37879;52.986;6.282;2022-12-07T17:22:38;2.80;99.90
51825;DHT22;37879;52.986;6.282;2022-12-07T17:25:04;4.50;99.90
51825;DHT22;37879;52.986;6.282;2022-12-07T17:27:30;2.90;99.90
51825;DHT22;37879;52.986;6.282;2022-12-07T17:29:56;2.90;99.90
51825;DHT22;37879;52.986;6.282;2022-12-07T17:32:22;3.30;99.90
51825;DHT22;37879;52.986;6.282;2022-12-07T17:34:48;4.00;99.90
51825;DHT22;37879;52.986;6.282;2022-12-07T17:37:13;3.00;99.90
51825;DHT22;37879;52.986;6.282;2022-12-07T17:39:39;3.00;99.90
51825;DHT22;37879;52.986;6.282;2022-12-07T17:42:05;3.00;99.90
51825;DHT22;37879;52.986;6.282;2022-12-07T17:44:49;3.00;99.90
51825;DHT22;37879;52.986;6.282;2022-12-07T17:47:15;3.00;99.90
51825;DHT22;37879;52.986;6.282;2022-12-07T17:49:43;3.30;99.90
51825;DHT22;37879;52.986;6.282;2022-12-07T17:52:11;3.00;99.90
51825;DHT22;37879;52.986;6.282;2022-12-07T17:55:09;2.90;99.90
51825;DHT22;37879;52.986;6.282;2022-12-07T17:57:35;3.40;99.90
51825;DHT22;37879;52.986;6.282;2022-12-07T18:00:02;2.90;99.90